sensor_id;sensor_type;location;lat;lon;timestamp;temperature;humidity
44229;DHT22;29904;51.058;5.378;2023-11-18T00:00:05;6.20;99.90
44229;DHT22;29904;51.058;5.378;2023-11-18T00:02:38;6.20;99.90
44229;DHT22;29904;51.058;5.378;2023-11-18T00:05:04;6.20;99.90
44229;DHT22;29904;51.058;5.378;2023-11-18T00:07:32;6.20;99.90
44229;DHT22;29904;51.058;5.378;2023-11-18T00:09:58;6.20;99.90
44229;DHT22;29904;51.058;5.378;2023-11-18T00:12:24;6.20;99.90
44229;DHT22;29904;51.058;5.378;2023-11-18T00:14:50;6.20;99.90
44229;DHT22;29904;51.058;5.378;2023-11-18T00:17:16;6.20;99.90
44229;DHT22;29904;51.058;5.378;2023-11-18T00:19:42;6.20;99.90
44229;DHT22;29904;51.058;5.378;2023-11-18T00:22:08;6.30;99.90
44229;DHT22;29904;51.058;5.378;2023-11-18T00:24:34;6.30;99.90
44229;DHT22;29904;51.058;5.378;2023-11-18T00:27:00;6.30;99.90
44229;DHT22;29904;51.058;5.378;2023-11-18T00:29:32;6.20;99.90
44229;DHT22;29904;51.058;5.378;2023-11-18T00:31:58;6.20;99.90
44229;DHT22;29904;51.058;5.378;2023-11-18T00:34:24;6.20;99.90
44229;DHT22;29904;51.058;5.378;2023-11-18T00:36:49;6.20;99.90
44229;DHT22;29904;51.058;5.378;2023-11-18T00:39:15;6.20;99.90
44229;DHT22;29904;51.058;5.378;2023-11-18T00:41:41;6.20;99.90
44229;DHT22;29904;51.058;5.378;2023-11-18T00:44:06;6.10;99.90
44229;DHT22;29904;51.058;5.378;2023-11-18T00:46:34;6.10;99.90
44229;DHT22;29904;51.058;5.378;2023-11-18T00:49:02;6.10;99.90
44229;DHT22;29904;51.058;5.378;2023-11-18T00:51:28;6.00;99.90
44229;DHT22;29904;51.058;5.378;2023-11-18T00:53:54;6.00;99.90
44229;DHT22;29904;51.058;5.378;2023-11-18T00:56:20;6.00;99.90
44229;DHT22;29904;51.058;5.378;2023-11-18T00:58:47;5.90;99.90
44229;DHT22;29904;51.058;5.378;2023-11-18T01:01:13;5.90;99.90
44229;DHT22;29904;51.058;5.378;2023-11-18T01:03:39;5.80;99.90
44229;DHT22;29904;51.058;5.378;2023-11-18T01:06:05;5.70;99.90
44229;DHT22;29904;51.058;5.378;2023-11-18T01:08:32;5.70;99.90
44229;DHT22;29904;51.058;5.378;2023-11-18T01:10:57;5.70;99.90
44229;DHT22;29904;51.058;5.378;2023-11-18T01:13:23;5.80;99.90
44229;DHT22;29904;51.058;5.378;2023-11-18T01:15:49;5.80;99.90
44229;DHT22;29904;51.058;5.378;2023-11-18T01:18:15;5.90;99.90
44229;DHT22;29904;51.058;5.378;2023-11-18T01:20:40;5.90;99.90
44229;DHT22;29904;51.058;5.378;2023-11-18T01:23:06;6.00;99.90
44229;DHT22;29904;51.058;5.378;2023-11-18T01:25:32;6.00;99.90
44229;DHT22;29904;51.058;5.378;2023-11-18T01:27:57;6.00;99.90
44229;DHT22;29904;51.058;5.378;2023-11-18T01:30:23;6.10;99.90
44229;DHT22;29904;51.058;5.378;2023-11-18T01:32:49;6.10;99.90
44229;DHT22;29904;51.058;5.378;2023-11-18T01:35:15;6.20;99.90
44229;DHT22;29904;51.058;5.378;2023-11-18T01:37:42;6.20;99.90
44229;DHT22;29904;51.058;5.378;2023-11-18T01:40:08;6.20;99.90
44229;DHT22;29904;51.058;5.378;2023-11-18T01:42:34;6.30;99.90
44229;DHT22;29904;51.058;5.378;2023-11-18T01:45:00;6.20;99.90
44229;DHT22;29904;51.058;5.378;2023-11-18T01:47:30;6.30;99.90
44229;DHT22;29904;51.058;5.378;2023-11-18T01:49:59;6.30;99.90
44229;DHT22;29904;51.058;5.378;2023-11-18T01:52:27;6.30;99.90
44229;DHT22;29904;51.058;5.378;2023-11-18T01:54:55;6.30;99.90
44229;DHT22;29904;51.058;5.378;2023-11-18T01:57:21;6.40;99.90
44229;DHT22;29904;51.058;5.378;2023-11-18T01:59:47;6.40;99.90
44229;DHT22;29904;51.058;5.378;2023-11-18T02:02:13;6.40;99.90
44229;DHT22;29904;51.058;5.378;2023-11-18T02:04:39;6.40;99.90
44229;DHT22;29904;51.058;5.378;2023-11-18T02:07:05;6.40;99.90
44229;DHT22;29904;51.058;5.378;2023-11-18T02:09:35;6.40;99.90
44229;DHT22;29904;51.058;5.378;2023-11-18T02:12:37;6.40;99.90
44229;DHT22;29904;51.058;5.378;2023-11-18T02:15:06;6.40;99.90
44229;DHT22;29904;51.058;5.378;2023-11-18T02:17:38;6.40;99.90
44229;DHT22;29904;51.058;5.378;2023-11-18T02:20:05;6.40;99.90
44229;DHT22;29904;51.058;5.378;2023-11-18T02:22:44;6.40;99.90
44229;DHT22;29904;51.058;5.378;2023-11-18T02:25:16;6.40;99.90
44229;DHT22;29904;51.058;5.378;2023-11-18T02:27:42;6.30;99.90
44229;DHT22;29904;51.058;5.378;2023-11-18T02:30:09;6.30;99.90
44229;DHT22;29904;51.058;5.378;2023-11-18T02:35:29;6.30;99.90
44229;DHT22;29904;51.058;5.378;2023-11-18T02:37:57;6.30;99.90
44229;DHT22;29904;51.058;5.378;2023-11-18T02:40:39;6.30;99.90
44229;DHT22;29904;51.058;5.378;2023-11-18T02:43:07;6.30;99.90
44229;DHT22;29904;51.058;5.378;2023-11-18T02:45:35;6.30;99.90
44229;DHT22;29904;51.058;5.378;2023-11-18T02:48:02;6.30;99.90
44229;DHT22;29904;51.058;5.378;2023-11-18T02:50:28;6.30;99.90
44229;DHT22;29904;51.058;5.378;2023-11-18T02:52:55;6.30;99.90
44229;DHT22;29904;51.058;5.378;2023-11-18T02:55:21;6.20;99.90
44229;DHT22;29904;51.058;5.378;2023-11-18T02:57:48;6.20;99.90
44229;DHT22;29904;51.058;5.378;2023-11-18T03:00:15;6.20;99.90
44229;DHT22;29904;51.058;5.378;2023-11-18T03:02:47;6.20;99.90
44229;DHT22;29904;51.058;5.378;2023-11-18T03:05:14;6.10;99.90
44229;DHT22;29904;51.058;5.378;2023-11-18T03:07:58;6.10;99.90
44229;DHT22;29904;51.058;5.378;2023-11-18T03:10:24;6.00;99.90
44229;DHT22;29904;51.058;5.378;2023-11-18T03:12:54;6.10;99.90
44229;DHT22;29904;51.058;5.378;2023-11-18T03:15:20;6.00;99.90
44229;DHT22;29904;51.058;5.378;2023-11-18T03:17:47;6.00;99.90
44229;DHT22;29904;51.058;5.378;2023-11-18T03:20:14;6.00;99.90
44229;DHT22;29904;51.058;5.378;2023-11-18T03:22:46;6.00;99.90
44229;DHT22;29904;51.058;5.378;2023-11-18T03:25:12;6.00;99.90
44229;DHT22;29904;51.058;5.378;2023-11-18T03:27:38;5.90;99.90
44229;DHT22;29904;51.058;5.378;2023-11-18T03:30:06;5.90;99.90
44229;DHT22;29904;51.058;5.378;2023-11-18T03:32:36;5.90;99.90
44229;DHT22;29904;51.058;5.378;2023-11-18T03:35:03;5.90;99.90
44229;DHT22;29904;51.058;5.378;2023-11-18T03:37:36;5.90;99.90
44229;DHT22;29904;51.058;5.378;2023-11-18T03:40:06;5.90;99.90
44229;DHT22;29904;51.058;5.378;2023-11-18T03:42:32;6.00;99.90
44229;DHT22;29904;51.058;5.378;2023-11-18T03:44:57;6.00;99.90
44229;DHT22;29904;51.058;5.378;2023-11-18T03:47:23;6.00;99.90
44229;DHT22;29904;51.058;5.378;2023-11-18T03:49:50;6.10;99.90
44229;DHT22;29904;51.058;5.378;2023-11-18T03:52:16;6.10;99.90
44229;DHT22;29904;51.058;5.378;2023-11-18T03:54:42;6.10;99.90
44229;DHT22;29904;51.058;5.378;2023-11-18T03:57:08;6.10;99.90
44229;DHT22;29904;51.058;5.378;2023-11-18T03:59:33;6.10;99.90
44229;DHT22;29904;51.058;5.378;2023-11-18T04:01:59;6.10;99.90
44229;DHT22;29904;51.058;5.378;2023-11-18T04:04:25;6.20;99.90
44229;DHT22;29904;51.058;5.378;2023-11-18T04:06:50;6.20;99.90
44229;DHT22;29904;51.058;5.378;2023-11-18T04:09:16;6.20;99.90
44229;DHT22;29904;51.058;5.378;2023-11-18T04:11:42;6.20;99.90
44229;DHT22;29904;51.058;5.378;2023-11-18T04:14:11;6.30;99.90
44229;DHT22;29904;51.058;5.378;2023-11-18T04:16:37;6.20;99.90
44229;DHT22;29904;51.058;5.378;2023-11-18T04:19:06;6.30;99.90
44229;DHT22;29904;51.058;5.378;2023-11-18T04:21:32;6.30;99.90
44229;DHT22;29904;51.058;5.378;2023-11-18T04:23:57;6.30;99.90
44229;DHT22;29904;51.058;5.378;2023-11-18T04:26:23;6.30;99.90
44229;DHT22;29904;51.058;5.378;2023-11-18T04:28:50;6.40;99.90
44229;DHT22;29904;51.058;5.378;2023-11-18T04:31:15;6.40;99.90
44229;DHT22;29904;51.058;5.378;2023-11-18T04:33:41;6.50;99.90
44229;DHT22;29904;51.058;5.378;2023-11-18T04:36:09;6.50;99.90
44229;DHT22;29904;51.058;5.378;2023-11-18T04:38:35;6.50;99.90
44229;DHT22;29904;51.058;5.378;2023-11-18T04:41:01;6.50;99.90
44229;DHT22;29904;51.058;5.378;2023-11-18T04:43:29;6.50;99.90
44229;DHT22;29904;51.058;5.378;2023-11-18T04:45:55;6.60;99.90
44229;DHT22;29904;51.058;5.378;2023-11-18T04:48:21;6.60;99.90
44229;DHT22;29904;51.058;5.378;2023-11-18T04:50:47;6.60;99.90
44229;DHT22;29904;51.058;5.378;2023-11-18T04:53:13;6.60;99.90
44229;DHT22;29904;51.058;5.378;2023-11-18T04:55:38;6.60;99.90
44229;DHT22;29904;51.058;5.378;2023-11-18T04:58:04;6.60;99.90
44229;DHT22;29904;51.058;5.378;2023-11-18T05:00:34;6.60;99.90
44229;DHT22;29904;51.058;5.378;2023-11-18T05:03:01;6.70;99.90
44229;DHT22;29904;51.058;5.378;2023-11-18T05:05:29;6.70;99.90
44229;DHT22;29904;51.058;5.378;2023-11-18T05:07:54;6.70;99.90
44229;DHT22;29904;51.058;5.378;2023-11-18T05:10:20;6.70;99.90
44229;DHT22;29904;51.058;5.378;2023-11-18T05:12:45;6.70;99.90
44229;DHT22;29904;51.058;5.378;2023-11-18T05:15:31;6.70;99.90
44229;DHT22;29904;51.058;5.378;2023-11-18T05:17:57;6.70;99.90
44229;DHT22;29904;51.058;5.378;2023-11-18T05:20:23;6.70;99.90
44229;DHT22;29904;51.058;5.378;2023-11-18T05:22:49;6.80;99.90
44229;DHT22;29904;51.058;5.378;2023-11-18T05:25:14;6.80;99.90
44229;DHT22;29904;51.058;5.378;2023-11-18T05:27:40;6.80;99.90
44229;DHT22;29904;51.058;5.378;2023-11-18T05:30:07;6.80;99.90
44229;DHT22;29904;51.058;5.378;2023-11-18T05:32:34;6.80;99.90
44229;DHT22;29904;51.058;5.378;2023-11-18T05:34:59;6.70;99.90
44229;DHT22;29904;51.058;5.378;2023-11-18T05:37:26;6.80;99.90
44229;DHT22;29904;51.058;5.378;2023-11-18T05:39:54;6.90;99.90
44229;DHT22;29904;51.058;5.378;2023-11-18T05:42:27;6.80;99.90
44229;DHT22;29904;51.058;5.378;2023-11-18T05:44:53;6.80;99.90
44229;DHT22;29904;51.058;5.378;2023-11-18T05:47:26;6.90;99.90
44229;DHT22;29904;51.058;5.378;2023-11-18T05:49:53;6.90;99.90
44229;DHT22;29904;51.058;5.378;2023-11-18T05:52:19;6.90;99.90
44229;DHT22;29904;51.058;5.378;2023-11-18T05:54:48;6.90;99.90
44229;DHT22;29904;51.058;5.378;2023-11-18T05:57:19;6.90;99.90
44229;DHT22;29904;51.058;5.378;2023-11-18T05:59:45;7.00;99.90
44229;DHT22;29904;51.058;5.378;2023-11-18T06:02:14;7.00;99.90
44229;DHT22;29904;51.058;5.378;2023-11-18T06:04:47;7.00;99.90
44229;DHT22;29904;51.058;5.378;2023-11-18T06:07:12;7.00;99.90
44229;DHT22;29904;51.058;5.378;2023-11-18T06:09:40;7.00;99.90
44229;DHT22;29904;51.058;5.378;2023-11-18T06:12:07;7.10;99.90
44229;DHT22;29904;51.058;5.378;2023-11-18T06:14:36;7.00;99.90
44229;DHT22;29904;51.058;5.378;2023-11-18T06:17:02;7.10;99.90
44229;DHT22;29904;51.058;5.378;2023-11-18T06:19:28;7.00;99.90
44229;DHT22;29904;51.058;5.378;2023-11-18T06:21:54;7.00;99.90
44229;DHT22;29904;51.058;5.378;2023-11-18T06:24:20;7.00;99.90
44229;DHT22;29904;51.058;5.378;2023-11-18T06:26:47;7.00;99.90
44229;DHT22;29904;51.058;5.378;2023-11-18T06:29:14;7.00;99.90
44229;DHT22;29904;51.058;5.378;2023-11-18T06:31:41;7.00;99.90
44229;DHT22;29904;51.058;5.378;2023-11-18T06:34:07;7.00;99.90
44229;DHT22;29904;51.058;5.378;2023-11-18T06:36:33;7.00;99.90
44229;DHT22;29904;51.058;5.378;2023-11-18T06:38:59;7.00;99.90
44229;DHT22;29904;51.058;5.378;2023-11-18T06:41:24;7.10;99.90
44229;DHT22;29904;51.058;5.378;2023-11-18T06:43:58;7.10;99.90
44229;DHT22;29904;51.058;5.378;2023-11-18T06:46:29;7.10;99.90
44229;DHT22;29904;51.058;5.378;2023-11-18T06:48:57;7.10;99.90
44229;DHT22;29904;51.058;5.378;2023-11-18T06:51:25;7.10;99.90
44229;DHT22;29904;51.058;5.378;2023-11-18T06:53:56;7.20;99.90
44229;DHT22;29904;51.058;5.378;2023-11-18T06:56:22;7.20;99.90
44229;DHT22;29904;51.058;5.378;2023-11-18T06:58:48;7.20;99.90
44229;DHT22;29904;51.058;5.378;2023-11-18T07:01:14;7.20;99.90
44229;DHT22;29904;51.058;5.378;2023-11-18T07:03:47;7.20;99.90
44229;DHT22;29904;51.058;5.378;2023-11-18T07:06:19;7.20;99.90
44229;DHT22;29904;51.058;5.378;2023-11-18T07:08:49;7.20;99.90
44229;DHT22;29904;51.058;5.378;2023-11-18T07:11:19;7.30;99.90
44229;DHT22;29904;51.058;5.378;2023-11-18T07:13:46;7.30;99.90
44229;DHT22;29904;51.058;5.378;2023-11-18T07:16:13;7.30;99.90
44229;DHT22;29904;51.058;5.378;2023-11-18T07:18:40;7.40;99.90
44229;DHT22;29904;51.058;5.378;2023-11-18T07:21:07;7.40;99.90
44229;DHT22;29904;51.058;5.378;2023-11-18T07:23:35;7.40;99.90
44229;DHT22;29904;51.058;5.378;2023-11-18T07:26:01;7.40;99.90
44229;DHT22;29904;51.058;5.378;2023-11-18T07:28:29;7.40;99.90
44229;DHT22;29904;51.058;5.378;2023-11-18T07:30:56;7.40;99.90
44229;DHT22;29904;51.058;5.378;2023-11-18T07:33:23;7.40;99.90
44229;DHT22;29904;51.058;5.378;2023-11-18T07:35:49;7.40;99.90
44229;DHT22;29904;51.058;5.378;2023-11-18T07:38:16;7.50;99.90
44229;DHT22;29904;51.058;5.378;2023-11-18T07:40:42;7.50;99.90
44229;DHT22;29904;51.058;5.378;2023-11-18T07:43:17;7.50;99.90
44229;DHT22;29904;51.058;5.378;2023-11-18T07:45:43;7.50;99.90
44229;DHT22;29904;51.058;5.378;2023-11-18T07:48:11;7.60;99.90
44229;DHT22;29904;51.058;5.378;2023-11-18T07:50:38;7.60;99.90
44229;DHT22;29904;51.058;5.378;2023-11-18T07:53:06;7.60;99.90
44229;DHT22;29904;51.058;5.378;2023-11-18T07:55:33;7.70;99.90
44229;DHT22;29904;51.058;5.378;2023-11-18T07:58:06;7.70;99.90
44229;DHT22;29904;51.058;5.378;2023-11-18T08:00:44;7.80;99.90
44229;DHT22;29904;51.058;5.378;2023-11-18T08:03:13;7.80;99.90
44229;DHT22;29904;51.058;5.378;2023-11-18T08:05:43;7.90;99.90
44229;DHT22;29904;51.058;5.378;2023-11-18T08:08:13;7.90;99.90
44229;DHT22;29904;51.058;5.378;2023-11-18T08:10:42;7.90;99.90
44229;DHT22;29904;51.058;5.378;2023-11-18T08:13:10;8.00;99.90
44229;DHT22;29904;51.058;5.378;2023-11-18T08:15:40;8.00;99.90
44229;DHT22;29904;51.058;5.378;2023-11-18T08:18:06;8.00;99.90
44229;DHT22;29904;51.058;5.378;2023-11-18T08:20:32;8.00;99.90
44229;DHT22;29904;51.058;5.378;2023-11-18T08:22:58;8.00;99.90
44229;DHT22;29904;51.058;5.378;2023-11-18T08:25:24;8.00;99.90
44229;DHT22;29904;51.058;5.378;2023-11-18T08:27:51;8.00;99.90
44229;DHT22;29904;51.058;5.378;2023-11-18T08:30:16;8.00;99.90
44229;DHT22;29904;51.058;5.378;2023-11-18T08:32:44;8.00;99.90
44229;DHT22;29904;51.058;5.378;2023-11-18T08:35:14;8.00;99.90
44229;DHT22;29904;51.058;5.378;2023-11-18T08:37:41;7.90;99.90
44229;DHT22;29904;51.058;5.378;2023-11-18T08:40:08;8.00;99.90
44229;DHT22;29904;51.058;5.378;2023-11-18T08:42:44;7.90;99.90
44229;DHT22;29904;51.058;5.378;2023-11-18T08:47:45;7.90;99.90
44229;DHT22;29904;51.058;5.378;2023-11-18T08:50:18;7.90;99.90
44229;DHT22;29904;51.058;5.378;2023-11-18T08:52:47;7.90;99.90
44229;DHT22;29904;51.058;5.378;2023-11-18T08:55:13;7.90;99.90
44229;DHT22;29904;51.058;5.378;2023-11-18T08:57:47;7.90;99.90
44229;DHT22;29904;51.058;5.378;2023-11-18T09:00:18;7.90;99.90
44229;DHT22;29904;51.058;5.378;2023-11-18T09:03:02;7.90;99.90
44229;DHT22;29904;51.058;5.378;2023-11-18T09:05:32;8.00;99.90
44229;DHT22;29904;51.058;5.378;2023-11-18T09:07:58;8.00;99.90
44229;DHT22;29904;51.058;5.378;2023-11-18T09:10:26;8.00;99.90
44229;DHT22;29904;51.058;5.378;2023-11-18T09:12:54;8.00;99.90
44229;DHT22;29904;51.058;5.378;2023-11-18T09:15:20;8.00;99.90
44229;DHT22;29904;51.058;5.378;2023-11-18T09:17:49;8.00;99.90
44229;DHT22;29904;51.058;5.378;2023-11-18T09:20:15;8.10;99.90
44229;DHT22;29904;51.058;5.378;2023-11-18T09:22:46;8.10;99.90
44229;DHT22;29904;51.058;5.378;2023-11-18T09:25:12;8.10;99.90
44229;DHT22;29904;51.058;5.378;2023-11-18T09:27:38;8.10;99.90
44229;DHT22;29904;51.058;5.378;2023-11-18T09:30:05;8.10;99.90
44229;DHT22;29904;51.058;5.378;2023-11-18T09:32:40;8.10;99.90
44229;DHT22;29904;51.058;5.378;2023-11-18T09:35:08;8.20;99.90
44229;DHT22;29904;51.058;5.378;2023-11-18T09:37:35;8.20;99.90
44229;DHT22;29904;51.058;5.378;2023-11-18T09:40:02;8.20;99.90
44229;DHT22;29904;51.058;5.378;2023-11-18T09:42:43;8.20;99.90
44229;DHT22;29904;51.058;5.378;2023-11-18T09:45:10;8.20;99.90
44229;DHT22;29904;51.058;5.378;2023-11-18T09:47:45;8.20;99.90
44229;DHT22;29904;51.058;5.378;2023-11-18T09:50:17;8.30;99.90
44229;DHT22;29904;51.058;5.378;2023-11-18T09:52:49;8.30;99.90
44229;DHT22;29904;51.058;5.378;2023-11-18T09:55:32;8.30;99.90
44229;DHT22;29904;51.058;5.378;2023-11-18T09:58:04;8.30;99.90
44229;DHT22;29904;51.058;5.378;2023-11-18T10:00:39;8.40;99.90
44229;DHT22;29904;51.058;5.378;2023-11-18T10:03:08;8.40;99.90
44229;DHT22;29904;51.058;5.378;2023-11-18T10:05:36;8.50;99.90
44229;DHT22;29904;51.058;5.378;2023-11-18T10:08:05;8.50;99.90
44229;DHT22;29904;51.058;5.378;2023-11-18T10:10:34;8.60;99.90
44229;DHT22;29904;51.058;5.378;2023-11-18T10:13:03;8.60;99.90
44229;DHT22;29904;51.058;5.378;2023-11-18T10:15:47;8.60;99.90
44229;DHT22;29904;51.058;5.378;2023-11-18T10:18:18;8.60;99.90
44229;DHT22;29904;51.058;5.378;2023-11-18T10:20:50;8.70;99.90
44229;DHT22;29904;51.058;5.378;2023-11-18T10:23:20;8.70;99.90
44229;DHT22;29904;51.058;5.378;2023-11-18T10:28:27;8.80;99.90
44229;DHT22;29904;51.058;5.378;2023-11-18T10:30:58;8.80;99.90
44229;DHT22;29904;51.058;5.378;2023-11-18T10:33:25;8.80;99.90
44229;DHT22;29904;51.058;5.378;2023-11-18T10:35:58;8.80;99.90
44229;DHT22;29904;51.058;5.378;2023-11-18T10:38:29;8.90;99.90
44229;DHT22;29904;51.058;5.378;2023-11-18T10:40:57;8.90;99.90
44229;DHT22;29904;51.058;5.378;2023-11-18T10:43:23;8.90;99.90
44229;DHT22;29904;51.058;5.378;2023-11-18T10:46:09;8.90;99.90
44229;DHT22;29904;51.058;5.378;2023-11-18T10:51:12;8.90;99.90
44229;DHT22;29904;51.058;5.378;2023-11-18T10:53:39;8.80;99.90
44229;DHT22;29904;51.058;5.378;2023-11-18T10:56:17;8.90;99.90
44229;DHT22;29904;51.058;5.378;2023-11-18T10:58:45;8.90;99.90
44229;DHT22;29904;51.058;5.378;2023-11-18T11:01:12;9.00;99.90
44229;DHT22;29904;51.058;5.378;2023-11-18T11:03:53;9.60;99.90
44229;DHT22;29904;51.058;5.378;2023-11-18T11:06:24;9.00;99.90
44229;DHT22;29904;51.058;5.378;2023-11-18T11:08:56;9.10;99.90
44229;DHT22;29904;51.058;5.378;2023-11-18T11:11:25;9.10;99.90
44229;DHT22;29904;51.058;5.378;2023-11-18T11:13:57;9.20;99.90
44229;DHT22;29904;51.058;5.378;2023-11-18T11:16:38;9.20;99.90
44229;DHT22;29904;51.058;5.378;2023-11-18T11:22:06;9.10;99.90
44229;DHT22;29904;51.058;5.378;2023-11-18T11:27:33;9.10;99.90
44229;DHT22;29904;51.058;5.378;2023-11-18T11:30:23;9.10;99.90
44229;DHT22;29904;51.058;5.378;2023-11-18T11:35:43;9.10;99.90
44229;DHT22;29904;51.058;5.378;2023-11-18T11:38:15;9.10;99.90
44229;DHT22;29904;51.058;5.378;2023-11-18T11:40:42;9.10;99.90
44229;DHT22;29904;51.058;5.378;2023-11-18T11:43:10;9.10;99.90
44229;DHT22;29904;51.058;5.378;2023-11-18T11:45:41;9.00;99.90
44229;DHT22;29904;51.058;5.378;2023-11-18T11:48:09;9.00;99.90
44229;DHT22;29904;51.058;5.378;2023-11-18T11:53:49;9.10;99.90
44229;DHT22;29904;51.058;5.378;2023-11-18T11:56:18;9.00;99.90
44229;DHT22;29904;51.058;5.378;2023-11-18T11:58:47;9.00;99.90
44229;DHT22;29904;51.058;5.378;2023-11-18T12:01:32;9.10;99.90
44229;DHT22;29904;51.058;5.378;2023-11-18T12:04:03;9.00;99.90
44229;DHT22;29904;51.058;5.378;2023-11-18T12:06:33;9.00;99.90
44229;DHT22;29904;51.058;5.378;2023-11-18T12:09:04;9.10;99.90
44229;DHT22;29904;51.058;5.378;2023-11-18T12:11:36;9.10;99.90
44229;DHT22;29904;51.058;5.378;2023-11-18T12:14:08;9.00;99.90
44229;DHT22;29904;51.058;5.378;2023-11-18T12:17:06;9.00;99.90
44229;DHT22;29904;51.058;5.378;2023-11-18T12:19:47;9.10;99.90
44229;DHT22;29904;51.058;5.378;2023-11-18T12:22:18;9.10;99.90
44229;DHT22;29904;51.058;5.378;2023-11-18T12:27:44;9.10;99.90
44229;DHT22;29904;51.058;5.378;2023-11-18T12:33:02;9.00;99.90
44229;DHT22;29904;51.058;5.378;2023-11-18T12:41:37;9.20;99.90
44229;DHT22;29904;51.058;5.378;2023-11-18T12:46:52;9.10;99.90
44229;DHT22;29904;51.058;5.378;2023-11-18T12:49:22;9.10;99.90
44229;DHT22;29904;51.058;5.378;2023-11-18T12:51:55;9.20;99.90
44229;DHT22;29904;51.058;5.378;2023-11-18T12:54:23;9.20;99.90
44229;DHT22;29904;51.058;5.378;2023-11-18T12:56:51;9.20;99.90
44229;DHT22;29904;51.058;5.378;2023-11-18T12:59:19;9.20;99.90
44229;DHT22;29904;51.058;5.378;2023-11-18T13:01:52;9.20;99.90
44229;DHT22;29904;51.058;5.378;2023-11-18T13:04:27;9.20;99.90
44229;DHT22;29904;51.058;5.378;2023-11-18T13:06:53;9.20;99.90
44229;DHT22;29904;51.058;5.378;2023-11-18T13:09:22;9.30;99.90
44229;DHT22;29904;51.058;5.378;2023-11-18T13:11:56;9.30;99.90
44229;DHT22;29904;51.058;5.378;2023-11-18T13:14:27;9.30;99.90
44229;DHT22;29904;51.058;5.378;2023-11-18T13:16:54;9.30;99.90
44229;DHT22;29904;51.058;5.378;2023-11-18T13:19:26;9.30;99.90
44229;DHT22;29904;51.058;5.378;2023-11-18T13:22:00;9.30;99.90
44229;DHT22;29904;51.058;5.378;2023-11-18T13:24:26;9.30;99.90
44229;DHT22;29904;51.058;5.378;2023-11-18T13:26:54;9.30;99.90
44229;DHT22;29904;51.058;5.378;2023-11-18T13:29:21;9.30;99.90
44229;DHT22;29904;51.058;5.378;2023-11-18T13:31:48;9.30;99.90
44229;DHT22;29904;51.058;5.378;2023-11-18T13:34:14;9.30;99.90
44229;DHT22;29904;51.058;5.378;2023-11-18T13:36:41;9.30;99.90
44229;DHT22;29904;51.058;5.378;2023-11-18T13:39:16;9.30;99.90
44229;DHT22;29904;51.058;5.378;2023-11-18T13:41:42;9.30;99.90
44229;DHT22;29904;51.058;5.378;2023-11-18T13:44:10;9.20;99.90
44229;DHT22;29904;51.058;5.378;2023-11-18T13:46:48;9.20;99.90
44229;DHT22;29904;51.058;5.378;2023-11-18T13:49:14;9.20;99.90
44229;DHT22;29904;51.058;5.378;2023-11-18T13:51:39;9.20;99.90
44229;DHT22;29904;51.058;5.378;2023-11-18T13:54:05;9.20;99.90
44229;DHT22;29904;51.058;5.378;2023-11-18T13:56:32;9.20;99.90
44229;DHT22;29904;51.058;5.378;2023-11-18T13:58:58;9.20;99.90
44229;DHT22;29904;51.058;5.378;2023-11-18T14:01:24;9.10;99.90
44229;DHT22;29904;51.058;5.378;2023-11-18T14:03:53;9.20;99.90
44229;DHT22;29904;51.058;5.378;2023-11-18T14:06:22;9.10;99.90
44229;DHT22;29904;51.058;5.378;2023-11-18T14:08:48;9.10;99.90
44229;DHT22;29904;51.058;5.378;2023-11-18T14:11:14;9.10;99.90
44229;DHT22;29904;51.058;5.378;2023-11-18T14:13:39;9.10;99.90
44229;DHT22;29904;51.058;5.378;2023-11-18T14:16:05;9.10;99.90
44229;DHT22;29904;51.058;5.378;2023-11-18T14:18:35;9.10;99.90
44229;DHT22;29904;51.058;5.378;2023-11-18T14:21:01;9.10;99.90
44229;DHT22;29904;51.058;5.378;2023-11-18T14:23:27;9.00;99.90
44229;DHT22;29904;51.058;5.378;2023-11-18T14:25:53;9.00;99.90
44229;DHT22;29904;51.058;5.378;2023-11-18T14:28:19;9.10;99.90
44229;DHT22;29904;51.058;5.378;2023-11-18T14:30:50;9.10;99.90
44229;DHT22;29904;51.058;5.378;2023-11-18T14:33:16;9.10;99.90
44229;DHT22;29904;51.058;5.378;2023-11-18T14:35:44;9.10;99.90
44229;DHT22;29904;51.058;5.378;2023-11-18T14:38:10;9.20;99.90
44229;DHT22;29904;51.058;5.378;2023-11-18T14:40:38;9.10;99.90
44229;DHT22;29904;51.058;5.378;2023-11-18T14:43:06;9.10;99.90
44229;DHT22;29904;51.058;5.378;2023-11-18T14:45:32;9.10;99.90
44229;DHT22;29904;51.058;5.378;2023-11-18T14:47:58;9.10;99.90
44229;DHT22;29904;51.058;5.378;2023-11-18T14:50:24;9.10;99.90
44229;DHT22;29904;51.058;5.378;2023-11-18T14:52:52;9.20;99.90
44229;DHT22;29904;51.058;5.378;2023-11-18T14:55:37;9.20;99.90
44229;DHT22;29904;51.058;5.378;2023-11-18T14:58:03;9.10;99.90
44229;DHT22;29904;51.058;5.378;2023-11-18T15:00:30;9.20;99.90
44229;DHT22;29904;51.058;5.378;2023-11-18T15:02:58;9.10;99.90
44229;DHT22;29904;51.058;5.378;2023-11-18T15:05:23;9.10;99.90
44229;DHT22;29904;51.058;5.378;2023-11-18T15:07:51;9.20;99.90
44229;DHT22;29904;51.058;5.378;2023-11-18T15:10:19;9.20;99.90
44229;DHT22;29904;51.058;5.378;2023-11-18T15:12:58;9.20;99.90
44229;DHT22;29904;51.058;5.378;2023-11-18T15:15:28;9.30;99.90
44229;DHT22;29904;51.058;5.378;2023-11-18T15:17:58;9.20;99.90
44229;DHT22;29904;51.058;5.378;2023-11-18T15:20:24;9.30;99.90
44229;DHT22;29904;51.058;5.378;2023-11-18T15:22:51;9.30;99.90
44229;DHT22;29904;51.058;5.378;2023-11-18T15:25:17;9.30;99.90
44229;DHT22;29904;51.058;5.378;2023-11-18T15:27:46;9.30;99.90
44229;DHT22;29904;51.058;5.378;2023-11-18T15:30:13;9.30;99.90
44229;DHT22;29904;51.058;5.378;2023-11-18T15:32:46;9.40;99.90
44229;DHT22;29904;51.058;5.378;2023-11-18T15:35:12;9.40;99.90
44229;DHT22;29904;51.058;5.378;2023-11-18T15:37:40;9.40;99.90
44229;DHT22;29904;51.058;5.378;2023-11-18T15:40:08;9.40;99.90
44229;DHT22;29904;51.058;5.378;2023-11-18T15:42:40;9.40;99.90
44229;DHT22;29904;51.058;5.378;2023-11-18T15:45:13;9.40;99.90
44229;DHT22;29904;51.058;5.378;2023-11-18T15:47:40;9.40;99.90
44229;DHT22;29904;51.058;5.378;2023-11-18T15:50:09;9.40;99.90
44229;DHT22;29904;51.058;5.378;2023-11-18T15:52:38;9.40;99.90
44229;DHT22;29904;51.058;5.378;2023-11-18T15:55:05;9.50;99.90
44229;DHT22;29904;51.058;5.378;2023-11-18T15:57:44;9.50;99.90
44229;DHT22;29904;51.058;5.378;2023-11-18T16:00:13;9.50;99.90
44229;DHT22;29904;51.058;5.378;2023-11-18T16:02:47;9.50;99.90
44229;DHT22;29904;51.058;5.378;2023-11-18T16:05:14;9.50;99.90
44229;DHT22;29904;51.058;5.378;2023-11-18T16:07:42;9.50;99.90
44229;DHT22;29904;51.058;5.378;2023-11-18T16:10:09;9.50;99.90
44229;DHT22;29904;51.058;5.378;2023-11-18T16:12:37;9.50;99.90
44229;DHT22;29904;51.058;5.378;2023-11-18T16:15:03;9.60;99.90
44229;DHT22;29904;51.058;5.378;2023-11-18T16:17:31;9.60;99.90
44229;DHT22;29904;51.058;5.378;2023-11-18T16:19:56;9.60;99.90
44229;DHT22;29904;51.058;5.378;2023-11-18T16:22:24;9.60;99.90
44229;DHT22;29904;51.058;5.378;2023-11-18T16:24:49;9.60;99.90
44229;DHT22;29904;51.058;5.378;2023-11-18T16:27:15;9.60;99.90
44229;DHT22;29904;51.058;5.378;2023-11-18T16:29:41;9.60;99.90